ESMTENTO

Guest
Details From ESMT - Halmstad
To ENTO - TORP
Flight Number -
Tags generated
Created
Modified
Stats Distance 171 nm / 318 km
Max Altitude 14,900 ft / 4,542 m
Waypoints 4
Social Downloads 0
Likes 0
Share VATSIM

Download

Looking for another format? Having issues loading an existing format? Contact us
Advertisement - Login to hide

Notes

Basic altitude profile: - Ascent Rate: 2500ft/min - Ascent Speed: 250kts - Cruise Altitude: 35000ft - Cruise Speed: 420kts - Descent Rate: 1500ft/min - Descent Speed: 250kts Options: - Use NATs: yes - Use PACOTS: yes - Use low airways: yes - Use high airways: yes

Route

ESMT SABAK Z300 TIVOL ENTO

ID Type Via Altitude Latitude Longitude Leg Dist Tot Dist Heading (true) Name
O ESMT APT - 0 ft / 0 m 56.69110˚ 12.82020˚ - 0 nm - Halmstad
SABAK FIX - 14,900 ft / 4,542 m 58.17656˚ 11.64272˚ 96 nm 96 nm 337° / 336° -
TIVOL FIX Z300 (AWY-LO) 9,500 ft / 2,896 m 58.89472˚ 10.65194˚ 53 nm 150 nm 325° / 324° -
O ENTO APT - 0 ft / 0 m 59.18666˚ 10.25860˚ 21 nm 171 nm 325° / 325° TORP

Altitude Profile

Advertisement - Login to hide

Weather


0- 5 10 15 20 25 30 35+ Temperature / ° C

Clouds and Precipitation
Forecast for 2017-12-12 00:00 UTC. Updated 11 minutes ago

Ground ~20,000 ft ~40,000 ft Winds

ESMT

Details ICAO ESMT (HAD)
Name Halmstad
Region Sweden
Timezone Europe/Stockholm (UTC+1.0)
Stats Elevation 101 ft / 31 m (AMSL)
Location 56.691097° 12.820203°
Runways 1
Magnetic Variation 3.851° E

METAR

ESMT 111920Z 06008KT 4400 -SN FEW003 SCT005 BKN007 01/00 Q0987

Decode

TAF

Not found

Departure Runways

ID Width Length Bearing (true) Bearing (mag) Surface Threshold Offset Overrun Length
01 131 ft / 40 m 7,410 ft / 2,259 m 6.19° 2.34° Asphalt 0 ft / 0 m 0 ft / 0 m
19 131 ft / 40 m 7,410 ft / 2,259 m 186.19° 182.34° Asphalt 0 ft / 0 m 0 ft / 0 m

ENTO

Details ICAO ENTO (TRF)
Name TORP
Region Norway
Timezone Europe/Oslo (UTC+1.0)
Stats Elevation 286 ft / 87 m (AMSL)
Location 59.186662° 10.258596°
Runways 1
Magnetic Variation 2.995° E

METAR

ENTO 111920Z 36012KT 9999 BKN013 M02/M04 Q0995

Decode

TAF

TAF ENTO 111700Z 1118/1218 01010KT 9999 OVC008 TEMPO 1118/1119 SCT010 BKN015 BECMG 1119/1121 SCT020

Decode

Destination Runways

ID Width Length Bearing (true) Bearing (mag) Surface Threshold Offset Overrun Length
18 148 ft / 45 m 9,820 ft / 2,993 m 179.40° 176.41° Asphalt 1,231 ft / 375 m 0 ft / 0 m
36 148 ft / 45 m 9,820 ft / 2,993 m 359.40° 356.41° Asphalt 1,231 ft / 375 m 0 ft / 0 m

Approach Navaids

Runway Type Ident Frequency Range Bearing (true) Bearing (mag) Slope Elevation
18 Localiser TP 108.30 MHz 18 nm / 33 km 179.33° 176.33° - 312 ft / 95 m (AMSL)
18 Glidescope TP 108.30 MHz 10 nm / 19 km 179.40° 176.40° 3.00° 286 ft / 87 m (AMSL)
36 Localiser SFJ 110.95 MHz 25 nm / 46 km 359.33° 356.33° - 268 ft / 82 m (AMSL)
36 Glidescope SFJ 110.95 MHz 25 nm / 46 km 359.33° 356.33° 3.00° 254 ft / 77 m (AMSL)
36 DME SFJ 110.95 MHz 25 nm / 46 km - - - 279 ft / 85 m (AMSL)

Popular Alternatives